sensor_id;sensor_type;location;lat;lon;timestamp;P1;durP1;ratioP1;P2;durP2;ratioP2
15077;SDS011;7638;49.760;8.646;2023-12-07T00:01:56;9.73;;;5.17;;
15077;SDS011;7638;49.760;8.646;2023-12-07T00:04:22;8.60;;;5.00;;
15077;SDS011;7638;49.760;8.646;2023-12-07T00:06:48;8.90;;;5.40;;
15077;SDS011;7638;49.760;8.646;2023-12-07T00:09:14;9.60;;;4.40;;
15077;SDS011;7638;49.760;8.646;2023-12-07T00:11:40;8.37;;;4.73;;
15077;SDS011;7638;49.760;8.646;2023-12-07T00:14:07;8.17;;;4.73;;
15077;SDS011;7638;49.760;8.646;2023-12-07T00:16:33;10.03;;;4.93;;
15077;SDS011;7638;49.760;8.646;2023-12-07T00:18:59;8.90;;;5.37;;
15077;SDS011;7638;49.760;8.646;2023-12-07T00:21:24;6.40;;;4.50;;
15077;SDS011;7638;49.760;8.646;2023-12-07T00:23:50;9.83;;;5.43;;
15077;SDS011;7638;49.760;8.646;2023-12-07T00:26:16;4.77;;;3.73;;
15077;SDS011;7638;49.760;8.646;2023-12-07T00:28:42;6.57;;;4.47;;
15077;SDS011;7638;49.760;8.646;2023-12-07T00:31:09;10.33;;;5.50;;
15077;SDS011;7638;49.760;8.646;2023-12-07T00:33:35;6.23;;;4.47;;
15077;SDS011;7638;49.760;8.646;2023-12-07T00:36:02;9.60;;;5.70;;
15077;SDS011;7638;49.760;8.646;2023-12-07T00:38:28;6.07;;;4.93;;
15077;SDS011;7638;49.760;8.646;2023-12-07T00:40:57;8.53;;;4.57;;
15077;SDS011;7638;49.760;8.646;2023-12-07T00:43:23;7.77;;;4.50;;
15077;SDS011;7638;49.760;8.646;2023-12-07T00:45:49;6.87;;;5.00;;
15077;SDS011;7638;49.760;8.646;2023-12-07T00:48:15;9.97;;;4.20;;
15077;SDS011;7638;49.760;8.646;2023-12-07T00:50:41;5.47;;;4.13;;
15077;SDS011;7638;49.760;8.646;2023-12-07T00:53:07;7.53;;;4.97;;
15077;SDS011;7638;49.760;8.646;2023-12-07T00:55:33;7.17;;;4.77;;
15077;SDS011;7638;49.760;8.646;2023-12-07T00:57:59;8.27;;;4.47;;
15077;SDS011;7638;49.760;8.646;2023-12-07T01:00:26;6.27;;;4.00;;
15077;SDS011;7638;49.760;8.646;2023-12-07T01:02:52;6.50;;;4.27;;
15077;SDS011;7638;49.760;8.646;2023-12-07T01:05:18;7.60;;;4.37;;
15077;SDS011;7638;49.760;8.646;2023-12-07T01:07:44;9.20;;;4.13;;
15077;SDS011;7638;49.760;8.646;2023-12-07T01:10:10;6.87;;;4.30;;
15077;SDS011;7638;49.760;8.646;2023-12-07T01:12:36;8.23;;;4.33;;
15077;SDS011;7638;49.760;8.646;2023-12-07T01:15:02;10.30;;;4.87;;
15077;SDS011;7638;49.760;8.646;2023-12-07T01:17:29;9.80;;;4.70;;
15077;SDS011;7638;49.760;8.646;2023-12-07T01:19:54;5.87;;;4.40;;
15077;SDS011;7638;49.760;8.646;2023-12-07T01:22:20;6.17;;;4.03;;
15077;SDS011;7638;49.760;8.646;2023-12-07T01:24:46;9.43;;;4.80;;
15077;SDS011;7638;49.760;8.646;2023-12-07T01:27:13;8.63;;;4.77;;
15077;SDS011;7638;49.760;8.646;2023-12-07T01:29:39;6.00;;;4.47;;
15077;SDS011;7638;49.760;8.646;2023-12-07T01:32:05;8.57;;;5.27;;
15077;SDS011;7638;49.760;8.646;2023-12-07T01:34:31;8.17;;;4.60;;
15077;SDS011;7638;49.760;8.646;2023-12-07T01:36:57;10.57;;;4.93;;
15077;SDS011;7638;49.760;8.646;2023-12-07T01:39:23;7.40;;;4.47;;
15077;SDS011;7638;49.760;8.646;2023-12-07T01:41:50;5.90;;;4.43;;
15077;SDS011;7638;49.760;8.646;2023-12-07T01:44:16;6.40;;;4.40;;
15077;SDS011;7638;49.760;8.646;2023-12-07T01:46:42;8.87;;;4.57;;
15077;SDS011;7638;49.760;8.646;2023-12-07T01:49:08;5.27;;;4.17;;
15077;SDS011;7638;49.760;8.646;2023-12-07T01:51:34;13.53;;;5.03;;
15077;SDS011;7638;49.760;8.646;2023-12-07T01:54:00;10.33;;;5.27;;
15077;SDS011;7638;49.760;8.646;2023-12-07T01:56:26;7.27;;;4.10;;
15077;SDS011;7638;49.760;8.646;2023-12-07T01:58:53;10.17;;;5.30;;
15077;SDS011;7638;49.760;8.646;2023-12-07T02:01:19;7.10;;;5.23;;
15077;SDS011;7638;49.760;8.646;2023-12-07T02:03:45;8.43;;;4.47;;
15077;SDS011;7638;49.760;8.646;2023-12-07T02:06:11;9.67;;;5.53;;
15077;SDS011;7638;49.760;8.646;2023-12-07T02:08:38;7.23;;;4.50;;
15077;SDS011;7638;49.760;8.646;2023-12-07T02:11:07;12.20;;;4.67;;
15077;SDS011;7638;49.760;8.646;2023-12-07T02:13:34;6.67;;;5.13;;
15077;SDS011;7638;49.760;8.646;2023-12-07T02:16:00;10.70;;;6.47;;
15077;SDS011;7638;49.760;8.646;2023-12-07T02:18:33;8.10;;;5.40;;
15077;SDS011;7638;49.760;8.646;2023-12-07T02:21:04;7.57;;;4.90;;
15077;SDS011;7638;49.760;8.646;2023-12-07T02:23:35;10.00;;;5.03;;
15077;SDS011;7638;49.760;8.646;2023-12-07T02:26:03;7.80;;;5.23;;
15077;SDS011;7638;49.760;8.646;2023-12-07T02:28:29;8.30;;;5.73;;
15077;SDS011;7638;49.760;8.646;2023-12-07T02:30:55;8.33;;;5.47;;
15077;SDS011;7638;49.760;8.646;2023-12-07T02:33:21;8.33;;;6.00;;
15077;SDS011;7638;49.760;8.646;2023-12-07T02:35:47;7.60;;;5.70;;
15077;SDS011;7638;49.760;8.646;2023-12-07T02:38:13;12.77;;;5.53;;
15077;SDS011;7638;49.760;8.646;2023-12-07T02:40:40;10.13;;;5.77;;
15077;SDS011;7638;49.760;8.646;2023-12-07T02:43:06;8.93;;;6.13;;
15077;SDS011;7638;49.760;8.646;2023-12-07T02:45:33;8.53;;;6.30;;
15077;SDS011;7638;49.760;8.646;2023-12-07T02:47:59;8.07;;;5.13;;
15077;SDS011;7638;49.760;8.646;2023-12-07T02:50:25;7.60;;;4.97;;
15077;SDS011;7638;49.760;8.646;2023-12-07T02:52:51;12.00;;;5.47;;
15077;SDS011;7638;49.760;8.646;2023-12-07T02:55:17;11.43;;;6.07;;
15077;SDS011;7638;49.760;8.646;2023-12-07T02:57:45;8.57;;;6.60;;
15077;SDS011;7638;49.760;8.646;2023-12-07T03:00:11;10.47;;;6.27;;
15077;SDS011;7638;49.760;8.646;2023-12-07T03:02:39;7.83;;;5.37;;
15077;SDS011;7638;49.760;8.646;2023-12-07T03:05:06;11.70;;;6.03;;
15077;SDS011;7638;49.760;8.646;2023-12-07T03:07:32;10.73;;;6.00;;
15077;SDS011;7638;49.760;8.646;2023-12-07T03:09:58;13.67;;;6.53;;
15077;SDS011;7638;49.760;8.646;2023-12-07T03:12:24;7.43;;;5.67;;
15077;SDS011;7638;49.760;8.646;2023-12-07T03:14:50;12.20;;;6.40;;
15077;SDS011;7638;49.760;8.646;2023-12-07T03:17:16;12.40;;;6.37;;
15077;SDS011;7638;49.760;8.646;2023-12-07T03:19:42;11.60;;;6.30;;
15077;SDS011;7638;49.760;8.646;2023-12-07T03:22:08;13.80;;;8.00;;
15077;SDS011;7638;49.760;8.646;2023-12-07T03:24:37;15.07;;;7.93;;
15077;SDS011;7638;49.760;8.646;2023-12-07T03:27:04;10.10;;;6.30;;
15077;SDS011;7638;49.760;8.646;2023-12-07T03:29:30;8.33;;;6.23;;
15077;SDS011;7638;49.760;8.646;2023-12-07T03:31:56;8.20;;;5.10;;
15077;SDS011;7638;49.760;8.646;2023-12-07T03:34:22;11.53;;;6.87;;
15077;SDS011;7638;49.760;8.646;2023-12-07T03:36:48;13.20;;;6.50;;
15077;SDS011;7638;49.760;8.646;2023-12-07T03:39:15;10.97;;;5.73;;
15077;SDS011;7638;49.760;8.646;2023-12-07T03:41:43;12.63;;;5.80;;
15077;SDS011;7638;49.760;8.646;2023-12-07T03:44:09;7.53;;;5.77;;
15077;SDS011;7638;49.760;8.646;2023-12-07T03:46:35;9.73;;;6.90;;
15077;SDS011;7638;49.760;8.646;2023-12-07T03:49:01;9.33;;;6.23;;
15077;SDS011;7638;49.760;8.646;2023-12-07T03:51:27;11.53;;;7.27;;
15077;SDS011;7638;49.760;8.646;2023-12-07T03:53:54;8.87;;;5.73;;
15077;SDS011;7638;49.760;8.646;2023-12-07T03:56:27;10.00;;;5.70;;
15077;SDS011;7638;49.760;8.646;2023-12-07T03:58:53;9.30;;;5.57;;
15077;SDS011;7638;49.760;8.646;2023-12-07T04:01:22;9.87;;;5.27;;
15077;SDS011;7638;49.760;8.646;2023-12-07T04:03:49;12.33;;;6.97;;
15077;SDS011;7638;49.760;8.646;2023-12-07T04:06:16;8.77;;;6.67;;
15077;SDS011;7638;49.760;8.646;2023-12-07T04:08:42;9.07;;;6.03;;
15077;SDS011;7638;49.760;8.646;2023-12-07T04:11:08;10.03;;;6.43;;
15077;SDS011;7638;49.760;8.646;2023-12-07T04:13:34;9.93;;;6.70;;
15077;SDS011;7638;49.760;8.646;2023-12-07T04:16:00;14.03;;;6.67;;
15077;SDS011;7638;49.760;8.646;2023-12-07T04:18:26;11.07;;;6.97;;
15077;SDS011;7638;49.760;8.646;2023-12-07T04:20:52;15.47;;;7.60;;
15077;SDS011;7638;49.760;8.646;2023-12-07T04:23:18;13.27;;;8.10;;
15077;SDS011;7638;49.760;8.646;2023-12-07T04:25:44;15.23;;;8.67;;
15077;SDS011;7638;49.760;8.646;2023-12-07T04:28:10;12.97;;;6.70;;
15077;SDS011;7638;49.760;8.646;2023-12-07T04:30:37;14.20;;;8.17;;
15077;SDS011;7638;49.760;8.646;2023-12-07T04:33:03;13.33;;;8.60;;
15077;SDS011;7638;49.760;8.646;2023-12-07T04:35:30;9.77;;;7.63;;
15077;SDS011;7638;49.760;8.646;2023-12-07T04:37:56;14.17;;;8.27;;
15077;SDS011;7638;49.760;8.646;2023-12-07T04:40:23;14.23;;;8.77;;
15077;SDS011;7638;49.760;8.646;2023-12-07T04:42:50;13.37;;;7.57;;
15077;SDS011;7638;49.760;8.646;2023-12-07T04:45:16;14.90;;;8.13;;
15077;SDS011;7638;49.760;8.646;2023-12-07T04:47:42;11.73;;;7.97;;
15077;SDS011;7638;49.760;8.646;2023-12-07T04:50:08;14.83;;;8.83;;
15077;SDS011;7638;49.760;8.646;2023-12-07T04:52:34;14.83;;;9.37;;
15077;SDS011;7638;49.760;8.646;2023-12-07T04:55:00;14.67;;;9.47;;
15077;SDS011;7638;49.760;8.646;2023-12-07T04:57:26;14.07;;;9.10;;
15077;SDS011;7638;49.760;8.646;2023-12-07T04:59:52;15.10;;;8.83;;
15077;SDS011;7638;49.760;8.646;2023-12-07T05:02:19;17.43;;;10.17;;
15077;SDS011;7638;49.760;8.646;2023-12-07T05:04:45;13.70;;;8.57;;
15077;SDS011;7638;49.760;8.646;2023-12-07T05:07:11;12.27;;;8.07;;
15077;SDS011;7638;49.760;8.646;2023-12-07T05:09:38;14.43;;;9.00;;
15077;SDS011;7638;49.760;8.646;2023-12-07T05:12:04;18.00;;;9.27;;
15077;SDS011;7638;49.760;8.646;2023-12-07T05:14:31;24.07;;;9.17;;
15077;SDS011;7638;49.760;8.646;2023-12-07T05:16:56;19.20;;;9.40;;
15077;SDS011;7638;49.760;8.646;2023-12-07T05:19:23;19.60;;;9.67;;
15077;SDS011;7638;49.760;8.646;2023-12-07T05:21:49;19.70;;;11.13;;
15077;SDS011;7638;49.760;8.646;2023-12-07T05:24:15;18.77;;;11.00;;
15077;SDS011;7638;49.760;8.646;2023-12-07T05:26:41;13.83;;;9.80;;
15077;SDS011;7638;49.760;8.646;2023-12-07T05:29:07;17.33;;;11.63;;
15077;SDS011;7638;49.760;8.646;2023-12-07T05:31:33;16.43;;;11.10;;
15077;SDS011;7638;49.760;8.646;2023-12-07T05:34:00;15.90;;;9.93;;
15077;SDS011;7638;49.760;8.646;2023-12-07T05:36:26;18.37;;;10.63;;
15077;SDS011;7638;49.760;8.646;2023-12-07T05:38:52;18.63;;;10.50;;
15077;SDS011;7638;49.760;8.646;2023-12-07T05:41:18;17.27;;;10.83;;
15077;SDS011;7638;49.760;8.646;2023-12-07T05:43:44;18.97;;;10.20;;
15077;SDS011;7638;49.760;8.646;2023-12-07T05:46:10;17.63;;;11.03;;
15077;SDS011;7638;49.760;8.646;2023-12-07T05:48:36;19.63;;;10.87;;
15077;SDS011;7638;49.760;8.646;2023-12-07T05:51:02;19.00;;;10.73;;
15077;SDS011;7638;49.760;8.646;2023-12-07T05:53:29;16.87;;;12.10;;
15077;SDS011;7638;49.760;8.646;2023-12-07T05:55:57;16.87;;;10.17;;
15077;SDS011;7638;49.760;8.646;2023-12-07T05:58:23;18.30;;;11.27;;
15077;SDS011;7638;49.760;8.646;2023-12-07T06:00:49;18.00;;;9.77;;
15077;SDS011;7638;49.760;8.646;2023-12-07T06:03:15;17.70;;;10.43;;
15077;SDS011;7638;49.760;8.646;2023-12-07T06:05:41;18.00;;;10.00;;
15077;SDS011;7638;49.760;8.646;2023-12-07T06:08:10;15.70;;;9.53;;
15077;SDS011;7638;49.760;8.646;2023-12-07T06:10:35;16.03;;;9.77;;
15077;SDS011;7638;49.760;8.646;2023-12-07T06:13:02;17.53;;;10.30;;
15077;SDS011;7638;49.760;8.646;2023-12-07T06:15:28;16.47;;;10.57;;
15077;SDS011;7638;49.760;8.646;2023-12-07T06:17:54;20.47;;;10.83;;
15077;SDS011;7638;49.760;8.646;2023-12-07T06:20:20;26.77;;;11.90;;
15077;SDS011;7638;49.760;8.646;2023-12-07T06:22:46;22.10;;;11.17;;
15077;SDS011;7638;49.760;8.646;2023-12-07T06:25:12;20.60;;;13.40;;
15077;SDS011;7638;49.760;8.646;2023-12-07T06:27:40;21.53;;;11.97;;
15077;SDS011;7638;49.760;8.646;2023-12-07T06:30:06;25.87;;;11.80;;
15077;SDS011;7638;49.760;8.646;2023-12-07T06:32:33;22.93;;;13.03;;
15077;SDS011;7638;49.760;8.646;2023-12-07T06:35:00;19.63;;;12.97;;
15077;SDS011;7638;49.760;8.646;2023-12-07T06:37:26;21.33;;;11.87;;
15077;SDS011;7638;49.760;8.646;2023-12-07T06:39:52;23.20;;;13.70;;
15077;SDS011;7638;49.760;8.646;2023-12-07T06:42:18;22.43;;;13.00;;
15077;SDS011;7638;49.760;8.646;2023-12-07T06:44:46;21.70;;;10.80;;
15077;SDS011;7638;49.760;8.646;2023-12-07T06:47:16;20.47;;;12.87;;
15077;SDS011;7638;49.760;8.646;2023-12-07T06:49:42;23.67;;;12.70;;
15077;SDS011;7638;49.760;8.646;2023-12-07T06:52:07;25.17;;;12.77;;
15077;SDS011;7638;49.760;8.646;2023-12-07T06:54:34;21.77;;;12.53;;
15077;SDS011;7638;49.760;8.646;2023-12-07T06:57:00;17.67;;;12.50;;
15077;SDS011;7638;49.760;8.646;2023-12-07T06:59:26;19.47;;;11.77;;
15077;SDS011;7638;49.760;8.646;2023-12-07T07:01:51;21.50;;;11.03;;
15077;SDS011;7638;49.760;8.646;2023-12-07T07:04:17;20.40;;;11.77;;
15077;SDS011;7638;49.760;8.646;2023-12-07T07:06:43;17.60;;;10.60;;
15077;SDS011;7638;49.760;8.646;2023-12-07T07:09:09;22.60;;;11.00;;
15077;SDS011;7638;49.760;8.646;2023-12-07T07:11:37;17.67;;;10.73;;
15077;SDS011;7638;49.760;8.646;2023-12-07T07:14:03;20.07;;;11.87;;
15077;SDS011;7638;49.760;8.646;2023-12-07T07:16:29;15.03;;;10.60;;
15077;SDS011;7638;49.760;8.646;2023-12-07T07:18:56;17.87;;;10.77;;
15077;SDS011;7638;49.760;8.646;2023-12-07T07:21:22;18.13;;;10.60;;
15077;SDS011;7638;49.760;8.646;2023-12-07T07:23:48;17.17;;;10.10;;
15077;SDS011;7638;49.760;8.646;2023-12-07T07:26:14;17.37;;;9.70;;
15077;SDS011;7638;49.760;8.646;2023-12-07T07:28:42;18.43;;;10.27;;
15077;SDS011;7638;49.760;8.646;2023-12-07T07:31:08;18.73;;;9.57;;
15077;SDS011;7638;49.760;8.646;2023-12-07T07:33:34;14.60;;;10.00;;
15077;SDS011;7638;49.760;8.646;2023-12-07T07:36:00;16.87;;;9.70;;
15077;SDS011;7638;49.760;8.646;2023-12-07T07:38:26;18.13;;;11.27;;
15077;SDS011;7638;49.760;8.646;2023-12-07T07:40:52;18.70;;;10.03;;
15077;SDS011;7638;49.760;8.646;2023-12-07T07:43:18;16.67;;;9.83;;
15077;SDS011;7638;49.760;8.646;2023-12-07T07:45:44;23.70;;;11.67;;
15077;SDS011;7638;49.760;8.646;2023-12-07T07:48:10;19.87;;;11.57;;
15077;SDS011;7638;49.760;8.646;2023-12-07T07:50:37;20.00;;;11.53;;
15077;SDS011;7638;49.760;8.646;2023-12-07T07:53:03;21.13;;;12.37;;
15077;SDS011;7638;49.760;8.646;2023-12-07T07:55:29;17.63;;;11.70;;
15077;SDS011;7638;49.760;8.646;2023-12-07T07:57:56;19.83;;;11.17;;
15077;SDS011;7638;49.760;8.646;2023-12-07T08:00:22;20.63;;;11.00;;
15077;SDS011;7638;49.760;8.646;2023-12-07T08:02:51;19.57;;;11.47;;
15077;SDS011;7638;49.760;8.646;2023-12-07T08:05:17;23.23;;;11.37;;
15077;SDS011;7638;49.760;8.646;2023-12-07T08:07:43;15.33;;;10.43;;
15077;SDS011;7638;49.760;8.646;2023-12-07T08:10:09;17.87;;;10.57;;
15077;SDS011;7638;49.760;8.646;2023-12-07T08:12:35;17.23;;;10.60;;
15077;SDS011;7638;49.760;8.646;2023-12-07T08:15:01;15.67;;;9.57;;
15077;SDS011;7638;49.760;8.646;2023-12-07T08:17:27;13.83;;;10.17;;
15077;SDS011;7638;49.760;8.646;2023-12-07T08:19:53;16.30;;;9.27;;
15077;SDS011;7638;49.760;8.646;2023-12-07T08:22:19;13.17;;;8.90;;
15077;SDS011;7638;49.760;8.646;2023-12-07T08:24:45;15.93;;;9.07;;
15077;SDS011;7638;49.760;8.646;2023-12-07T08:27:11;12.90;;;8.60;;
15077;SDS011;7638;49.760;8.646;2023-12-07T08:29:37;16.60;;;9.47;;
15077;SDS011;7638;49.760;8.646;2023-12-07T08:32:03;12.83;;;8.73;;
15077;SDS011;7638;49.760;8.646;2023-12-07T08:34:29;12.17;;;7.43;;
15077;SDS011;7638;49.760;8.646;2023-12-07T08:36:55;13.67;;;8.77;;
15077;SDS011;7638;49.760;8.646;2023-12-07T08:39:22;14.00;;;9.17;;
15077;SDS011;7638;49.760;8.646;2023-12-07T08:41:49;12.93;;;8.47;;
15077;SDS011;7638;49.760;8.646;2023-12-07T08:44:15;15.17;;;8.73;;
15077;SDS011;7638;49.760;8.646;2023-12-07T08:46:41;12.43;;;8.83;;
15077;SDS011;7638;49.760;8.646;2023-12-07T08:49:09;19.67;;;9.33;;
15077;SDS011;7638;49.760;8.646;2023-12-07T08:51:35;12.17;;;8.27;;
15077;SDS011;7638;49.760;8.646;2023-12-07T08:54:01;13.93;;;8.57;;
15077;SDS011;7638;49.760;8.646;2023-12-07T08:56:27;11.57;;;7.97;;
15077;SDS011;7638;49.760;8.646;2023-12-07T08:58:53;12.57;;;8.80;;
15077;SDS011;7638;49.760;8.646;2023-12-07T09:01:19;14.20;;;8.47;;
15077;SDS011;7638;49.760;8.646;2023-12-07T09:03:45;12.03;;;8.30;;
15077;SDS011;7638;49.760;8.646;2023-12-07T09:06:11;13.40;;;8.40;;
15077;SDS011;7638;49.760;8.646;2023-12-07T09:08:37;13.50;;;8.03;;
15077;SDS011;7638;49.760;8.646;2023-12-07T09:11:04;12.00;;;8.07;;
15077;SDS011;7638;49.760;8.646;2023-12-07T09:13:30;18.37;;;8.13;;
15077;SDS011;7638;49.760;8.646;2023-12-07T09:15:56;14.93;;;7.70;;
15077;SDS011;7638;49.760;8.646;2023-12-07T09:18:23;10.93;;;7.53;;
15077;SDS011;7638;49.760;8.646;2023-12-07T09:20:49;11.67;;;7.70;;
15077;SDS011;7638;49.760;8.646;2023-12-07T09:23:16;12.20;;;7.20;;
15077;SDS011;7638;49.760;8.646;2023-12-07T09:25:42;11.03;;;7.40;;
15077;SDS011;7638;49.760;8.646;2023-12-07T09:28:08;18.13;;;8.37;;
15077;SDS011;7638;49.760;8.646;2023-12-07T09:30:34;15.87;;;8.70;;
15077;SDS011;7638;49.760;8.646;2023-12-07T09:33:00;14.80;;;9.13;;
15077;SDS011;7638;49.760;8.646;2023-12-07T09:35:29;15.60;;;8.90;;
15077;SDS011;7638;49.760;8.646;2023-12-07T09:37:55;16.53;;;9.40;;
15077;SDS011;7638;49.760;8.646;2023-12-07T09:40:22;14.23;;;9.67;;
15077;SDS011;7638;49.760;8.646;2023-12-07T09:42:49;12.17;;;8.67;;
15077;SDS011;7638;49.760;8.646;2023-12-07T09:45:16;19.23;;;10.20;;
15077;SDS011;7638;49.760;8.646;2023-12-07T09:47:46;19.37;;;10.40;;
15077;SDS011;7638;49.760;8.646;2023-12-07T09:50:13;15.73;;;10.60;;
15077;SDS011;7638;49.760;8.646;2023-12-07T09:52:41;17.90;;;11.20;;
15077;SDS011;7638;49.760;8.646;2023-12-07T09:55:08;20.70;;;12.03;;
15077;SDS011;7638;49.760;8.646;2023-12-07T09:57:34;20.50;;;12.90;;
15077;SDS011;7638;49.760;8.646;2023-12-07T10:00:00;21.40;;;13.43;;
15077;SDS011;7638;49.760;8.646;2023-12-07T10:02:26;24.93;;;14.03;;
15077;SDS011;7638;49.760;8.646;2023-12-07T10:07:34;26.33;;;14.83;;
15077;SDS011;7638;49.760;8.646;2023-12-07T10:10:01;23.37;;;14.63;;
15077;SDS011;7638;49.760;8.646;2023-12-07T10:12:28;30.57;;;15.13;;
15077;SDS011;7638;49.760;8.646;2023-12-07T10:14:54;24.30;;;14.97;;
15077;SDS011;7638;49.760;8.646;2023-12-07T10:17:20;21.77;;;13.27;;
15077;SDS011;7638;49.760;8.646;2023-12-07T10:19:46;26.37;;;13.57;;
15077;SDS011;7638;49.760;8.646;2023-12-07T10:22:15;20.90;;;12.97;;
15077;SDS011;7638;49.760;8.646;2023-12-07T10:24:41;21.63;;;12.67;;
15077;SDS011;7638;49.760;8.646;2023-12-07T10:27:08;23.77;;;12.23;;
15077;SDS011;7638;49.760;8.646;2023-12-07T10:29:37;21.97;;;14.07;;
15077;SDS011;7638;49.760;8.646;2023-12-07T10:32:04;23.67;;;14.00;;
15077;SDS011;7638;49.760;8.646;2023-12-07T10:34:31;23.13;;;14.00;;
15077;SDS011;7638;49.760;8.646;2023-12-07T10:37:00;22.97;;;13.63;;
15077;SDS011;7638;49.760;8.646;2023-12-07T10:39:29;25.47;;;14.77;;
15077;SDS011;7638;49.760;8.646;2023-12-07T10:41:56;28.37;;;15.27;;
15077;SDS011;7638;49.760;8.646;2023-12-07T10:44:27;28.00;;;13.67;;
15077;SDS011;7638;49.760;8.646;2023-12-07T10:46:54;25.90;;;15.17;;
15077;SDS011;7638;49.760;8.646;2023-12-07T10:49:21;26.53;;;14.37;;
15077;SDS011;7638;49.760;8.646;2023-12-07T10:54:14;19.93;;;11.97;;
15077;SDS011;7638;49.760;8.646;2023-12-07T10:56:44;28.27;;;14.10;;
15077;SDS011;7638;49.760;8.646;2023-12-07T10:59:11;21.10;;;13.27;;
15077;SDS011;7638;49.760;8.646;2023-12-07T11:01:41;22.37;;;12.53;;
15077;SDS011;7638;49.760;8.646;2023-12-07T11:04:08;23.63;;;12.77;;
15077;SDS011;7638;49.760;8.646;2023-12-07T11:06:36;21.97;;;11.73;;
15077;SDS011;7638;49.760;8.646;2023-12-07T11:09:05;25.57;;;12.50;;
15077;SDS011;7638;49.760;8.646;2023-12-07T11:11:41;26.87;;;13.33;;
15077;SDS011;7638;49.760;8.646;2023-12-07T11:14:09;24.40;;;11.63;;
15077;SDS011;7638;49.760;8.646;2023-12-07T11:16:43;21.97;;;12.43;;
15077;SDS011;7638;49.760;8.646;2023-12-07T11:22:11;25.37;;;11.70;;
15077;SDS011;7638;49.760;8.646;2023-12-07T11:24:37;24.70;;;13.37;;
15077;SDS011;7638;49.760;8.646;2023-12-07T11:27:03;24.93;;;13.93;;
15077;SDS011;7638;49.760;8.646;2023-12-07T11:29:30;20.57;;;12.13;;
15077;SDS011;7638;49.760;8.646;2023-12-07T11:32:05;24.73;;;14.57;;
15077;SDS011;7638;49.760;8.646;2023-12-07T11:34:38;33.10;;;12.10;;
15077;SDS011;7638;49.760;8.646;2023-12-07T11:37:04;32.83;;;13.67;;
15077;SDS011;7638;49.760;8.646;2023-12-07T11:39:37;24.40;;;12.33;;
15077;SDS011;7638;49.760;8.646;2023-12-07T11:42:07;27.90;;;13.10;;
15077;SDS011;7638;49.760;8.646;2023-12-07T11:44:34;33.53;;;14.13;;
15077;SDS011;7638;49.760;8.646;2023-12-07T11:47:00;24.37;;;12.50;;
15077;SDS011;7638;49.760;8.646;2023-12-07T11:49:26;31.80;;;14.27;;
15077;SDS011;7638;49.760;8.646;2023-12-07T11:51:53;24.60;;;13.67;;
15077;SDS011;7638;49.760;8.646;2023-12-07T11:54:19;31.57;;;13.77;;
15077;SDS011;7638;49.760;8.646;2023-12-07T11:56:46;27.60;;;13.73;;
15077;SDS011;7638;49.760;8.646;2023-12-07T11:59:17;36.70;;;15.37;;
15077;SDS011;7638;49.760;8.646;2023-12-07T12:01:46;29.80;;;14.43;;
15077;SDS011;7638;49.760;8.646;2023-12-07T12:04:12;29.40;;;14.97;;
15077;SDS011;7638;49.760;8.646;2023-12-07T12:06:38;31.77;;;15.10;;
15077;SDS011;7638;49.760;8.646;2023-12-07T12:09:04;27.23;;;14.03;;
15077;SDS011;7638;49.760;8.646;2023-12-07T12:11:30;24.37;;;13.73;;
15077;SDS011;7638;49.760;8.646;2023-12-07T12:13:56;31.57;;;14.27;;
15077;SDS011;7638;49.760;8.646;2023-12-07T12:16:22;34.23;;;16.10;;
15077;SDS011;7638;49.760;8.646;2023-12-07T12:18:48;32.40;;;15.43;;
15077;SDS011;7638;49.760;8.646;2023-12-07T12:21:14;29.83;;;15.53;;
15077;SDS011;7638;49.760;8.646;2023-12-07T12:23:40;28.87;;;15.27;;
15077;SDS011;7638;49.760;8.646;2023-12-07T12:26:07;31.60;;;16.20;;
15077;SDS011;7638;49.760;8.646;2023-12-07T12:28:35;34.43;;;17.83;;
15077;SDS011;7638;49.760;8.646;2023-12-07T12:31:07;34.33;;;15.80;;
15077;SDS011;7638;49.760;8.646;2023-12-07T12:33:33;36.10;;;15.90;;
15077;SDS011;7638;49.760;8.646;2023-12-07T12:36:06;32.93;;;17.33;;
15077;SDS011;7638;49.760;8.646;2023-12-07T12:38:32;36.43;;;16.03;;
15077;SDS011;7638;49.760;8.646;2023-12-07T12:40:58;33.73;;;17.30;;
15077;SDS011;7638;49.760;8.646;2023-12-07T12:43:24;25.67;;;14.73;;
15077;SDS011;7638;49.760;8.646;2023-12-07T12:45:50;36.63;;;16.33;;
15077;SDS011;7638;49.760;8.646;2023-12-07T12:48:17;34.97;;;17.73;;
15077;SDS011;7638;49.760;8.646;2023-12-07T12:50:43;28.23;;;15.53;;
15077;SDS011;7638;49.760;8.646;2023-12-07T12:53:10;33.53;;;16.03;;
15077;SDS011;7638;49.760;8.646;2023-12-07T12:55:38;33.80;;;13.77;;
15077;SDS011;7638;49.760;8.646;2023-12-07T12:58:09;33.03;;;15.27;;
15077;SDS011;7638;49.760;8.646;2023-12-07T13:00:38;35.27;;;16.10;;
15077;SDS011;7638;49.760;8.646;2023-12-07T13:03:05;23.03;;;13.23;;
15077;SDS011;7638;49.760;8.646;2023-12-07T13:05:32;40.63;;;15.63;;
15077;SDS011;7638;49.760;8.646;2023-12-07T13:07:59;31.23;;;16.23;;
15077;SDS011;7638;49.760;8.646;2023-12-07T13:10:25;29.17;;;16.47;;
15077;SDS011;7638;49.760;8.646;2023-12-07T13:12:51;27.67;;;14.60;;
15077;SDS011;7638;49.760;8.646;2023-12-07T13:15:17;28.80;;;16.33;;
15077;SDS011;7638;49.760;8.646;2023-12-07T13:17:43;34.83;;;16.43;;
15077;SDS011;7638;49.760;8.646;2023-12-07T13:20:10;35.90;;;17.57;;
15077;SDS011;7638;49.760;8.646;2023-12-07T13:22:37;29.73;;;15.77;;
15077;SDS011;7638;49.760;8.646;2023-12-07T13:25:04;33.80;;;17.40;;
15077;SDS011;7638;49.760;8.646;2023-12-07T13:27:30;28.57;;;16.47;;
15077;SDS011;7638;49.760;8.646;2023-12-07T13:29:56;31.93;;;16.97;;
15077;SDS011;7638;49.760;8.646;2023-12-07T13:32:22;35.83;;;15.30;;
15077;SDS011;7638;49.760;8.646;2023-12-07T13:34:48;29.87;;;17.00;;
15077;SDS011;7638;49.760;8.646;2023-12-07T13:37:14;32.73;;;16.37;;
15077;SDS011;7638;49.760;8.646;2023-12-07T13:39:40;28.57;;;17.10;;
15077;SDS011;7638;49.760;8.646;2023-12-07T13:42:08;34.63;;;14.83;;
15077;SDS011;7638;49.760;8.646;2023-12-07T13:44:35;27.97;;;15.63;;
15077;SDS011;7638;49.760;8.646;2023-12-07T13:47:01;27.23;;;15.30;;
15077;SDS011;7638;49.760;8.646;2023-12-07T13:49:27;35.47;;;16.50;;
15077;SDS011;7638;49.760;8.646;2023-12-07T13:51:53;40.43;;;18.67;;
15077;SDS011;7638;49.760;8.646;2023-12-07T13:54:19;36.60;;;17.47;;
15077;SDS011;7638;49.760;8.646;2023-12-07T13:56:46;48.03;;;17.00;;
15077;SDS011;7638;49.760;8.646;2023-12-07T13:59:12;35.57;;;17.97;;
15077;SDS011;7638;49.760;8.646;2023-12-07T14:01:38;31.33;;;16.23;;
15077;SDS011;7638;49.760;8.646;2023-12-07T14:04:05;39.30;;;16.70;;
15077;SDS011;7638;49.760;8.646;2023-12-07T14:06:31;32.43;;;17.33;;
15077;SDS011;7638;49.760;8.646;2023-12-07T14:09:00;42.07;;;17.17;;
15077;SDS011;7638;49.760;8.646;2023-12-07T14:11:26;32.60;;;16.53;;
15077;SDS011;7638;49.760;8.646;2023-12-07T14:13:52;38.57;;;18.27;;
15077;SDS011;7638;49.760;8.646;2023-12-07T14:16:19;58.27;;;20.27;;
15077;SDS011;7638;49.760;8.646;2023-12-07T14:18:45;44.67;;;18.33;;
15077;SDS011;7638;49.760;8.646;2023-12-07T14:21:12;32.47;;;17.17;;
15077;SDS011;7638;49.760;8.646;2023-12-07T14:23:39;31.57;;;16.80;;
15077;SDS011;7638;49.760;8.646;2023-12-07T14:26:05;40.27;;;18.13;;
15077;SDS011;7638;49.760;8.646;2023-12-07T14:28:31;34.73;;;16.63;;
15077;SDS011;7638;49.760;8.646;2023-12-07T14:30:59;32.80;;;17.33;;
15077;SDS011;7638;49.760;8.646;2023-12-07T14:33:25;33.20;;;16.23;;
15077;SDS011;7638;49.760;8.646;2023-12-07T14:35:51;33.20;;;16.07;;
15077;SDS011;7638;49.760;8.646;2023-12-07T14:38:17;29.27;;;16.30;;
15077;SDS011;7638;49.760;8.646;2023-12-07T14:40:43;31.63;;;15.37;;
15077;SDS011;7638;49.760;8.646;2023-12-07T14:43:10;35.37;;;14.77;;
15077;SDS011;7638;49.760;8.646;2023-12-07T14:45:36;35.17;;;16.67;;
15077;SDS011;7638;49.760;8.646;2023-12-07T14:48:02;29.50;;;15.43;;